createdAt,value
2022-10-14T00:01:25.570Z,101820.97
2022-10-14T00:04:06.204Z,101821.15
2022-10-14T00:06:35.084Z,101821.68
2022-10-14T00:09:06.963Z,101818.36
2022-10-14T00:11:36.556Z,101816.43
2022-10-14T00:14:14.047Z,101818.01
2022-10-14T00:16:44.371Z,101812.39
2022-10-14T00:19:14.045Z,101811.00
2022-10-14T00:21:44.609Z,101811.34
2022-10-14T00:24:16.265Z,101808.03
2022-10-14T00:26:44.743Z,101807.34
2022-10-14T00:29:20.596Z,101805.05
2022-10-14T00:31:49.075Z,101806.24
2022-10-14T00:34:17.161Z,101804.14
2022-10-14T00:36:45.534Z,101805.19
2022-10-14T00:39:16.770Z,101803.95
2022-10-14T00:41:45.612Z,101804.62
2022-10-14T00:44:13.730Z,101798.67
2022-10-14T00:46:44.769Z,101798.48
2022-10-14T00:49:19.809Z,101794.80
2022-10-14T00:51:59.754Z,101797.73
2022-10-14T00:54:37.345Z,101794.71
2022-10-14T00:57:06.448Z,101794.31
2022-10-14T00:59:34.851Z,101791.68
2022-10-14T01:02:04.186Z,101793.08
2022-10-14T01:04:32.187Z,101790.98
2022-10-14T01:07:10.231Z,101789.38
2022-10-14T01:10:09.905Z,101788.11
2022-10-14T01:12:51.140Z,101785.79
2022-10-14T01:15:25.024Z,101786.48
2022-10-14T01:18:16.620Z,101784.89
2022-10-14T01:20:53.593Z,101781.39
2022-10-14T01:23:33.540Z,101781.71
2022-10-14T01:26:22.807Z,101783.75
2022-10-14T01:29:25.900Z,101779.34
2022-10-14T01:32:09.490Z,101773.33
2022-10-14T01:34:45.184Z,101771.40
2022-10-14T01:37:18.410Z,101770.87
2022-10-14T01:39:56.383Z,101767.58
2022-10-14T01:42:28.545Z,101764.77
2022-10-14T01:45:08.989Z,101765.11
2022-10-14T01:47:39.972Z,101761.27
2022-10-14T01:50:15.797Z,101760.55
2022-10-14T01:52:56.573Z,101756.52
2022-10-14T01:55:29.863Z,101756.79
2022-10-14T01:58:00.284Z,101753.45
2022-10-14T02:00:28.211Z,101751.67
2022-10-14T02:02:56.224Z,101749.95
2022-10-14T02:05:32.670Z,101748.05
2022-10-14T02:08:13.427Z,101750.66
2022-10-14T02:10:51.561Z,101748.20
2022-10-14T02:13:29.523Z,101744.67
2022-10-14T02:16:10.133Z,101746.05
2022-10-14T02:18:55.301Z,101744.46
2022-10-14T02:21:29.335Z,101744.07
2022-10-14T02:24:08.641Z,101741.42
2022-10-14T02:26:38.270Z,101737.56
2022-10-14T02:29:06.638Z,101730.94
2022-10-14T02:31:38.077Z,101730.94
2022-10-14T02:34:11.689Z,101731.29
2022-10-14T02:36:41.964Z,101728.52
2022-10-14T02:39:13.446Z,101724.69
2022-10-14T02:41:41.862Z,101724.55
2022-10-14T02:44:10.309Z,101726.48
2022-10-14T02:46:40.540Z,101723.88
2022-10-14T02:49:10.454Z,101723.69
2022-10-14T02:51:39.035Z,101723.70
2022-10-14T02:54:10.883Z,101724.61
2022-10-14T02:56:38.863Z,101723.25
2022-10-14T02:59:07.031Z,101720.85
2022-10-14T03:01:37.555Z,101722.10
2022-10-14T03:04:06.660Z,101717.91
2022-10-14T03:06:34.588Z,101711.47
2022-10-14T03:09:03.512Z,101708.02
2022-10-14T03:11:33.230Z,101714.69
2022-10-14T03:14:04.464Z,101708.98
2022-10-14T03:16:33.246Z,101711.65
2022-10-14T03:19:01.318Z,101713.61
2022-10-14T03:21:45.578Z,101711.53
2022-10-14T03:24:18.861Z,101708.09
2022-10-14T03:26:47.752Z,101713.02
2022-10-14T03:29:16.128Z,101709.73
2022-10-14T03:31:53.519Z,101712.20
2022-10-14T03:34:28.161Z,101711.87
2022-10-14T03:37:04.917Z,101710.28
2022-10-14T03:39:33.606Z,101704.85
2022-10-14T03:42:05.951Z,101703.81
2022-10-14T03:44:40.905Z,101700.15
2022-10-14T03:47:29.152Z,101703.61
2022-10-14T03:49:57.126Z,101700.13
2022-10-14T03:52:38.293Z,101698.02
2022-10-14T03:55:09.641Z,101694.71
2022-10-14T03:57:37.608Z,101693.15
2022-10-14T04:00:07.304Z,101688.81
2022-10-14T04:02:44.093Z,101681.63
2022-10-14T04:05:33.826Z,101685.10
2022-10-14T04:08:05.662Z,101689.27
2022-10-14T04:10:35.746Z,101685.59
2022-10-14T04:13:04.127Z,101685.04
2022-10-14T04:15:37.297Z,101683.25
2022-10-14T04:18:18.289Z,101680.39
2022-10-14T04:20:46.360Z,101681.91
2022-10-14T04:23:14.740Z,101680.49
2022-10-14T04:25:44.138Z,101679.10
2022-10-14T04:28:13.030Z,101672.27
2022-10-14T04:30:46.630Z,101669.98
2022-10-14T04:33:19.002Z,101665.81
2022-10-14T04:35:47.685Z,101661.98
2022-10-14T04:38:21.765Z,101662.84
2022-10-14T04:40:55.345Z,101662.48
2022-10-14T04:43:23.470Z,101655.69
2022-10-14T04:45:52.257Z,101653.78
2022-10-14T04:48:25.141Z,101655.51
2022-10-14T04:50:54.749Z,101652.89
2022-10-14T04:53:34.286Z,101649.89
2022-10-14T04:56:11.471Z,101648.30
2022-10-14T04:58:42.714Z,101650.69
2022-10-14T05:01:10.685Z,101649.95
2022-10-14T05:03:40.800Z,101642.95
2022-10-14T05:06:08.975Z,101647.30
2022-10-14T05:08:40.833Z,101646.42
2022-10-14T05:11:10.593Z,101648.65
2022-10-14T05:13:43.730Z,101646.04
2022-10-14T05:16:11.937Z,101645.85
2022-10-14T05:18:40.599Z,101647.08
2022-10-14T05:21:14.395Z,101644.80
2022-10-14T05:23:56.907Z,101643.38
2022-10-14T05:26:26.003Z,101637.63
2022-10-14T05:28:54.419Z,101639.55
2022-10-14T05:31:22.755Z,101640.25
2022-10-14T05:34:01.066Z,101644.77
2022-10-14T05:36:29.360Z,101647.55
2022-10-14T05:38:58.973Z,101646.86
2022-10-14T05:41:29.477Z,101649.11
2022-10-14T05:43:57.649Z,101650.31
2022-10-14T05:46:26.129Z,101655.03
2022-10-14T05:48:57.786Z,101655.23
2022-10-14T05:51:26.521Z,101652.81
2022-10-14T05:53:59.479Z,101652.35
2022-10-14T05:56:27.626Z,101653.31
2022-10-14T05:58:55.902Z,101654.95
2022-10-14T06:01:23.977Z,101653.98
2022-10-14T06:03:52.950Z,101655.79
2022-10-14T06:06:26.578Z,101657.58
2022-10-14T06:08:57.834Z,101657.27
2022-10-14T06:11:26.390Z,101650.71
2022-10-14T06:13:54.392Z,101647.64
2022-10-14T06:16:22.329Z,101645.61
2022-10-14T06:18:54.266Z,101643.44
2022-10-14T06:21:23.019Z,101649.95
2022-10-14T06:23:51.060Z,101646.34
2022-10-14T06:26:19.013Z,101651.13
2022-10-14T06:28:47.004Z,101651.17
2022-10-14T06:31:15.174Z,101646.85
2022-10-14T06:33:44.234Z,101646.54
2022-10-14T06:36:12.321Z,101645.71
2022-10-14T06:38:40.392Z,101644.57
2022-10-14T06:41:08.772Z,101646.19
2022-10-14T06:43:36.737Z,101647.28
2022-10-14T06:46:05.705Z,101650.31
2022-10-14T06:48:34.214Z,101649.15
2022-10-14T06:51:03.104Z,101649.04
2022-10-14T06:53:30.973Z,101644.89
2022-10-14T06:56:04.467Z,101646.48
2022-10-14T06:58:33.559Z,101645.27
2022-10-14T07:01:03.687Z,101644.59
2022-10-14T07:03:32.121Z,101641.46
2022-10-14T07:06:03.767Z,101636.58
2022-10-14T07:08:32.391Z,101640.60
2022-10-14T07:11:00.509Z,101637.30
2022-10-14T07:13:28.535Z,101635.05
2022-10-14T07:15:56.607Z,101636.29
2022-10-14T07:18:24.508Z,101641.55
2022-10-14T07:20:53.059Z,101649.23
2022-10-14T07:23:21.226Z,101653.98
2022-10-14T07:25:49.203Z,101638.45
2022-10-14T07:28:17.166Z,101636.88
2022-10-14T07:30:45.134Z,101651.91
2022-10-14T07:33:13.410Z,101652.45
2022-10-14T07:35:41.477Z,101651.07
2022-10-14T07:38:09.378Z,101640.78
2022-10-14T07:40:37.313Z,101640.98
2022-10-14T07:43:05.237Z,101648.00
2022-10-14T07:45:36.323Z,101643.65
2022-10-14T07:48:04.388Z,101644.00
2022-10-14T07:50:32.356Z,101648.73
2022-10-14T07:53:01.326Z,101649.60
2022-10-14T07:55:29.831Z,101655.38
2022-10-14T07:57:57.776Z,101649.25
2022-10-14T08:00:25.765Z,101655.02
2022-10-14T08:02:54.246Z,101659.05
2022-10-14T08:05:38.783Z,101655.39
2022-10-14T08:08:08.122Z,101656.25
2022-10-14T08:10:36.900Z,101653.66
2022-10-14T08:13:05.472Z,101654.73
2022-10-14T08:15:40.818Z,101658.39
2022-10-14T08:18:11.033Z,101660.66
2022-10-14T08:20:39.006Z,101660.45
2022-10-14T08:23:06.972Z,101666.39
2022-10-14T08:25:36.682Z,101661.85
2022-10-14T08:28:05.004Z,101667.96
2022-10-14T08:30:33.025Z,101664.98
2022-10-14T08:33:01.306Z,101662.75
2022-10-14T08:35:29.268Z,101664.51
2022-10-14T08:38:01.541Z,101659.27
2022-10-14T08:40:31.045Z,101656.30
2022-10-14T08:43:14.549Z,101647.55
2022-10-14T08:45:48.994Z,101640.04
2022-10-14T08:48:22.903Z,101631.81
2022-10-14T08:51:03.225Z,101631.98
2022-10-14T08:53:40.548Z,101633.02
2022-10-14T08:56:11.707Z,101627.08
2022-10-14T08:58:49.902Z,101626.90
2022-10-14T09:01:33.942Z,101624.09
2022-10-14T09:04:14.668Z,101626.88
2022-10-14T09:06:47.081Z,101631.95
2022-10-14T09:09:31.538Z,101627.21
2022-10-14T09:12:12.099Z,101624.05
2022-10-14T09:14:47.446Z,101629.83
2022-10-14T09:17:24.726Z,101618.60
2022-10-14T09:20:17.027Z,101613.33
2022-10-14T09:25:20.068Z,101616.78
2022-10-14T09:27:48.150Z,101618.34
2022-10-14T09:30:17.921Z,101619.00
2022-10-14T09:32:54.277Z,101615.48
2022-10-14T09:35:27.732Z,101612.50
2022-10-14T09:37:55.993Z,101607.42
2022-10-14T09:40:36.142Z,101611.98
2022-10-14T09:43:09.845Z,101607.77
2022-10-14T09:45:56.658Z,101601.77
2022-10-14T09:48:39.876Z,101601.40
2022-10-14T09:51:11.224Z,101599.63
2022-10-14T09:53:52.119Z,101593.29
2022-10-14T09:56:48.534Z,101599.71
2022-10-14T09:59:22.130Z,101603.37
2022-10-14T10:01:55.663Z,101604.34
2022-10-14T10:04:27.763Z,101608.46
2022-10-14T10:06:56.069Z,101606.98
2022-10-14T10:09:24.551Z,101597.78
2022-10-14T10:11:52.840Z,101598.46
2022-10-14T10:14:20.795Z,101596.00
2022-10-14T10:19:33.015Z,101594.64
2022-10-14T10:25:12.577Z,101591.88
2022-10-14T10:27:49.646Z,101586.95
2022-10-14T10:30:17.869Z,101584.84
2022-10-14T10:33:04.947Z,101582.02
2022-10-14T10:35:32.811Z,101585.71
2022-10-14T10:38:24.533Z,101583.27
2022-10-14T10:41:20.150Z,101581.91
2022-10-14T10:43:57.514Z,101578.92
2022-10-14T10:46:53.462Z,101580.30
2022-10-14T10:50:00.202Z,101577.13
2022-10-14T10:52:30.871Z,101572.39
2022-10-14T10:55:12.775Z,101571.67
2022-10-14T10:58:06.155Z,101570.27
2022-10-14T11:00:50.377Z,101566.05
2022-10-14T11:04:00.233Z,101563.21
2022-10-14T11:06:56.976Z,101563.02
2022-10-14T11:10:05.482Z,101559.46
2022-10-14T11:13:00.084Z,101558.52
2022-10-14T11:15:34.299Z,101546.91
2022-10-14T11:18:12.090Z,101548.77
2022-10-14T11:21:11.290Z,101549.36
2022-10-14T11:23:59.678Z,101545.97
2022-10-14T11:26:43.577Z,101543.28
2022-10-14T11:29:20.674Z,101545.35
2022-10-14T11:31:57.349Z,101541.08
2022-10-14T11:34:31.241Z,101538.43
2022-10-14T11:37:27.167Z,101537.69
2022-10-14T11:40:04.248Z,101531.73
2022-10-14T11:42:38.790Z,101534.51
2022-10-14T11:45:25.179Z,101533.23
2022-10-14T11:48:14.647Z,101530.38
2022-10-14T11:50:49.583Z,101532.41
2022-10-14T11:53:23.360Z,101530.05
2022-10-14T11:56:21.417Z,101527.70
2022-10-14T11:58:52.186Z,101525.34
2022-10-14T12:01:28.084Z,101525.80
2022-10-14T12:04:24.168Z,101521.88
2022-10-14T12:07:09.339Z,101519.88
2022-10-14T12:09:44.693Z,101519.80
2022-10-14T12:12:18.207Z,101515.84
2022-10-14T12:14:51.875Z,101519.23
2022-10-14T12:17:43.379Z,101518.13
2022-10-14T12:20:38.922Z,101517.89
2022-10-14T12:23:11.717Z,101523.79
2022-10-14T12:25:54.919Z,101519.32
2022-10-14T12:28:23.108Z,101517.88
2022-10-14T12:30:51.883Z,101519.08
2022-10-14T12:33:22.917Z,101512.85
2022-10-14T12:36:01.623Z,101511.58
2022-10-14T12:38:31.684Z,101509.02
2022-10-14T12:41:39.966Z,101507.90
2022-10-14T12:44:15.000Z,101504.13
2022-10-14T12:46:46.253Z,101502.38
2022-10-14T12:49:24.599Z,101498.30
2022-10-14T12:51:55.073Z,101497.00
2022-10-14T12:54:25.509Z,101499.23
2022-10-14T12:57:01.458Z,101497.45
2022-10-14T12:59:39.148Z,101495.00
2022-10-14T13:02:35.596Z,101493.21
2022-10-14T13:05:22.311Z,101494.94
2022-10-14T13:08:12.392Z,101492.40
2022-10-14T13:10:45.891Z,101488.78
2022-10-14T13:13:49.506Z,101484.27
2022-10-14T13:16:23.617Z,101484.06
2022-10-14T13:18:58.255Z,101480.80
2022-10-14T13:21:35.613Z,101482.14
2022-10-14T13:24:38.753Z,101482.25
2022-10-14T13:27:30.914Z,101484.21
2022-10-14T13:30:09.610Z,101484.04
2022-10-14T13:32:55.246Z,101485.90
2022-10-14T13:36:15.642Z,101484.79
2022-10-14T13:38:59.818Z,101482.11
2022-10-14T13:41:31.406Z,101483.41
2022-10-14T13:44:00.951Z,101480.70
2022-10-14T13:46:42.966Z,101482.16
2022-10-14T13:49:23.696Z,101477.77
2022-10-14T13:52:04.588Z,101477.64
2022-10-14T13:54:33.063Z,101477.27
2022-10-14T14:02:43.638Z,101473.91
2022-10-14T14:05:18.894Z,101474.48
2022-10-14T14:10:51.533Z,101469.04
2022-10-14T14:13:36.002Z,101467.63
2022-10-14T14:16:04.226Z,101469.36
2022-10-14T14:18:56.017Z,101465.82
2022-10-14T14:21:27.276Z,101468.48
2022-10-14T14:24:02.464Z,101467.91
2022-10-14T14:26:39.035Z,101472.09
2022-10-14T14:29:15.528Z,101470.84
2022-10-14T14:32:06.562Z,101469.59
2022-10-14T14:34:37.391Z,101467.30
2022-10-14T14:40:16.640Z,101462.31
2022-10-14T14:42:47.936Z,101462.34
2022-10-14T14:45:20.974Z,101459.73
2022-10-14T14:47:55.014Z,101462.05
2022-10-14T14:50:32.593Z,101462.10
2022-10-14T14:53:15.325Z,101461.23
2022-10-14T14:56:11.848Z,101460.42
2022-10-14T14:58:52.501Z,101462.95
2022-10-14T15:01:24.488Z,101462.98
2022-10-14T15:04:12.074Z,101466.00
2022-10-14T15:06:51.806Z,101464.67
2022-10-14T15:09:25.464Z,101465.05
2022-10-14T15:11:56.498Z,101464.77
2022-10-14T15:14:48.838Z,101458.83
2022-10-14T15:17:32.366Z,101461.94
2022-10-14T15:20:31.355Z,101461.67
2022-10-14T15:22:59.330Z,101457.92
2022-10-14T15:25:31.599Z,101461.82
2022-10-14T15:28:02.160Z,101461.64
2022-10-14T15:30:51.893Z,101460.08
2022-10-14T15:33:22.336Z,101458.56
2022-10-14T15:35:57.229Z,101457.54
2022-10-14T15:38:26.550Z,101456.20
2022-10-14T15:40:55.583Z,101460.65
2022-10-14T15:43:26.521Z,101459.98
2022-10-14T15:46:18.338Z,101459.02
2022-10-14T15:48:50.591Z,101458.47
2022-10-14T15:51:21.021Z,101456.61
2022-10-14T15:53:49.385Z,101455.63
2022-10-14T15:56:17.480Z,101452.16
2022-10-14T15:58:45.946Z,101453.13
2022-10-14T16:01:20.665Z,101451.66
2022-10-14T16:03:52.493Z,101455.11
2022-10-14T16:06:22.903Z,101453.98
2022-10-14T16:08:51.366Z,101451.63
2022-10-14T16:11:26.274Z,101450.15
2022-10-14T16:13:54.649Z,101450.44
2022-10-14T16:16:31.420Z,101453.49
2022-10-14T16:19:02.692Z,101452.88
2022-10-14T16:21:31.536Z,101453.84
2022-10-14T16:23:59.798Z,101454.81
2022-10-14T16:26:28.108Z,101455.66
2022-10-14T16:28:56.155Z,101455.74
2022-10-14T16:31:24.143Z,101454.77
2022-10-14T16:33:54.947Z,101459.94
2022-10-14T16:36:25.048Z,101462.10
2022-10-14T16:38:53.127Z,101460.08
2022-10-14T16:41:21.142Z,101463.80
2022-10-14T16:43:49.005Z,101460.16
2022-10-14T16:46:18.460Z,101460.77
2022-10-14T16:48:48.726Z,101456.97
2022-10-14T16:51:16.498Z,101460.36
2022-10-14T16:53:45.408Z,101457.95
2022-10-14T16:56:37.308Z,101461.85
2022-10-14T16:59:07.814Z,101460.70
2022-10-14T17:01:36.039Z,101456.72
2022-10-14T17:04:05.110Z,101458.85
2022-10-14T17:06:33.076Z,101463.42
2022-10-14T17:09:01.162Z,101465.04
2022-10-14T17:11:29.423Z,101464.52
2022-10-14T17:14:00.678Z,101461.55
2022-10-14T17:16:29.387Z,101459.45
2022-10-14T17:18:59.267Z,101460.88
2022-10-14T17:21:29.767Z,101457.20
2022-10-14T17:24:02.369Z,101461.23
2022-10-14T17:26:32.259Z,101457.38
2022-10-14T17:29:00.979Z,101459.83
2022-10-14T17:31:29.653Z,101454.90
2022-10-14T17:33:59.365Z,101454.88
2022-10-14T17:36:29.055Z,101451.88
2022-10-14T17:38:58.983Z,101451.15
2022-10-14T17:41:28.691Z,101450.77
2022-10-14T17:43:58.408Z,101446.52
2022-10-14T17:46:29.338Z,101444.55
2022-10-14T17:49:00.485Z,101447.67
2022-10-14T17:51:28.763Z,101447.49
2022-10-14T17:54:00.122Z,101447.98
2022-10-14T17:56:29.815Z,101440.11
2022-10-14T17:59:00.556Z,101441.84
2022-10-14T18:01:37.882Z,101439.90
2022-10-14T18:04:18.107Z,101436.58
2022-10-14T18:06:47.455Z,101430.23
2022-10-14T18:09:15.769Z,101425.80
2022-10-14T18:14:34.271Z,101424.70
2022-10-14T18:17:02.716Z,101423.27
2022-10-14T18:19:30.681Z,101420.27
2022-10-14T18:21:59.264Z,101420.95
2022-10-14T18:24:27.433Z,101421.28
2022-10-14T18:26:55.406Z,101425.29
2022-10-14T18:29:24.086Z,101426.48
2022-10-14T18:34:27.441Z,101429.38
2022-10-14T18:36:55.566Z,101430.54
2022-10-14T18:39:23.793Z,101433.13
2022-10-14T18:41:51.819Z,101438.19
2022-10-14T18:44:19.781Z,101436.75
2022-10-14T18:46:47.762Z,101436.23
2022-10-14T18:49:16.025Z,101441.30
2022-10-14T18:51:44.118Z,101445.00
2022-10-14T18:54:21.072Z,101447.30
2022-10-14T18:56:49.247Z,101441.91
2022-10-14T18:59:22.336Z,101443.15
2022-10-14T19:01:53.266Z,101444.23
2022-10-14T19:04:24.420Z,101436.90
2022-10-14T19:06:53.104Z,101438.84
2022-10-14T19:09:24.800Z,101441.66
2022-10-14T19:11:52.954Z,101445.02
2022-10-14T19:14:22.475Z,101444.15
2022-10-14T19:16:51.494Z,101444.70
2022-10-14T19:19:20.375Z,101438.22
2022-10-14T19:21:50.537Z,101439.46
2022-10-14T19:24:18.606Z,101433.16
2022-10-14T19:26:47.641Z,101429.85
2022-10-14T19:29:16.574Z,101429.90
2022-10-14T19:31:44.868Z,101428.53
2022-10-14T19:34:15.709Z,101422.59
2022-10-14T19:36:44.673Z,101423.68
2022-10-14T19:39:16.456Z,101424.58
2022-10-14T19:41:46.713Z,101425.98
2022-10-14T19:44:16.424Z,101420.40
2022-10-14T19:46:45.346Z,101409.52
2022-10-14T19:49:15.099Z,101407.62
2022-10-14T19:51:44.358Z,101408.00
2022-10-14T19:54:13.596Z,101407.14
2022-10-14T19:56:42.082Z,101404.70
2022-10-14T19:59:10.625Z,101405.05
2022-10-14T20:01:38.634Z,101404.50
2022-10-14T20:04:07.200Z,101396.08
2022-10-14T20:06:36.901Z,101393.46
2022-10-14T20:09:06.318Z,101398.92
2022-10-14T20:11:35.598Z,101399.14
2022-10-14T20:14:04.699Z,101401.61
2022-10-14T20:16:33.555Z,101394.79
2022-10-14T20:19:01.775Z,101397.27
2022-10-14T20:21:31.133Z,101396.08
2022-10-14T20:23:59.981Z,101395.40
2022-10-14T20:26:28.158Z,101393.50
2022-10-14T20:28:56.463Z,101391.94
2022-10-14T20:31:27.900Z,101390.77
2022-10-14T20:33:57.024Z,101389.77
2022-10-14T20:36:25.039Z,101390.14
2022-10-14T20:38:53.184Z,101387.70
2022-10-14T20:41:26.620Z,101383.69
2022-10-14T20:43:55.466Z,101384.96
2022-10-14T20:46:25.171Z,101390.80
2022-10-14T20:48:55.188Z,101386.48
2022-10-14T20:51:24.605Z,101381.60
2022-10-14T20:54:03.075Z,101382.33
2022-10-14T20:56:34.873Z,101387.97
2022-10-14T20:59:08.047Z,101388.70
2022-10-14T21:01:36.924Z,101387.88
2022-10-14T21:04:07.891Z,101388.63
2022-10-14T21:06:36.581Z,101389.52
2022-10-14T21:09:04.669Z,101387.45
2022-10-14T21:11:32.815Z,101386.93
2022-10-14T21:14:01.060Z,101384.85
2022-10-14T21:16:29.885Z,101384.34
2022-10-14T21:19:05.889Z,101387.86
2022-10-14T21:21:42.468Z,101385.10
2022-10-14T21:24:14.612Z,101387.41
2022-10-14T21:26:42.543Z,101381.13
2022-10-14T21:29:10.814Z,101384.64
2022-10-14T21:31:39.296Z,101381.52
2022-10-14T21:34:07.531Z,101381.70
2022-10-14T21:36:36.604Z,101378.73
2022-10-14T21:39:15.694Z,101375.42
2022-10-14T21:41:44.767Z,101377.20
2022-10-14T21:44:19.782Z,101373.03
2022-10-14T21:46:48.688Z,101376.20
2022-10-14T21:49:16.879Z,101373.77
2022-10-14T21:51:44.851Z,101374.80
2022-10-14T21:54:13.452Z,101377.42
2022-10-14T21:56:41.707Z,101373.25
2022-10-14T21:59:11.433Z,101377.60
2022-10-14T22:01:39.698Z,101377.24
2022-10-14T22:04:07.976Z,101374.42
2022-10-14T22:06:36.654Z,101372.30
2022-10-14T22:09:07.489Z,101374.90
2022-10-14T22:11:38.542Z,101372.09
2022-10-14T22:14:10.005Z,101367.88
2022-10-14T22:16:38.456Z,101369.98
2022-10-14T22:19:07.251Z,101364.70
2022-10-14T22:21:36.851Z,101361.71
2022-10-14T22:26:40.877Z,101361.00
2022-10-14T22:29:12.229Z,101358.20
2022-10-14T22:31:41.031Z,101360.13
2022-10-14T22:34:12.154Z,101357.66
2022-10-14T22:36:41.053Z,101355.58
2022-10-14T22:39:13.295Z,101355.39
2022-10-14T22:41:41.283Z,101359.42
2022-10-14T22:44:10.411Z,101354.86
2022-10-14T22:46:39.777Z,101351.02
2022-10-14T22:49:07.850Z,101348.41
2022-10-14T22:51:42.370Z,101349.11
2022-10-14T22:54:11.260Z,101343.39
2022-10-14T22:56:39.662Z,101345.70
2022-10-14T22:59:10.167Z,101338.21
2022-10-14T23:01:40.073Z,101338.42
2022-10-14T23:04:08.639Z,101339.85
2022-10-14T23:06:36.995Z,101335.15
2022-10-14T23:09:05.088Z,101340.42
2022-10-14T23:11:33.179Z,101345.69
2022-10-14T23:14:04.472Z,101347.27
2022-10-14T23:16:36.035Z,101349.04
2022-10-14T23:19:04.457Z,101348.87
2022-10-14T23:21:35.300Z,101344.84
2022-10-14T23:24:08.655Z,101349.39
2022-10-14T23:26:36.971Z,101350.27
2022-10-14T23:29:11.574Z,101354.09
2022-10-14T23:31:41.501Z,101350.41
2022-10-14T23:34:14.292Z,101348.98
2022-10-14T23:36:43.038Z,101351.41
2022-10-14T23:39:11.449Z,101354.37
2022-10-14T23:41:39.725Z,101351.02
2022-10-14T23:44:07.693Z,101352.23
2022-10-14T23:46:35.657Z,101351.00
2022-10-14T23:49:07.532Z,101343.98
2022-10-14T23:51:42.852Z,101338.55
2022-10-14T23:54:10.934Z,101337.16
2022-10-14T23:56:38.899Z,101335.39
2022-10-14T23:59:06.867Z,101333.64
